Time;durP1;ratioP1;P1;durP2;ratioP2;P2;SDS_P1;SDS_P2;PMS_P1;PMS_P2;Temp;Humidity;BMP_temperature;BMP_pressure;BME280_temperature;BME280_humidity;BME280_pressure;Samples;Min_cycle;Max_cycle;Signal;HPM_P1;HPM_P2
2022/07/02 00:00:20;;;;;;;10.18;3.08;;;;;;;;;;4275367;33;20196;-71
2022/07/02 00:02:49;;;;;;;6.50;2.40;;;;;;;;;;4273885;33;20112;-72
2022/07/02 00:33:43;;;;;;;6.68;2.50;;;;;;;;;;4964061;28;20067;-66
2022/07/02 00:36:21;;;;;;;4.00;2.30;;;;;;;;;;4303327;33;20182;-70
2022/07/02 00:38:50;;;;;;;4.50;2.67;;;;;;;;;;4303802;33;20111;-74
2022/07/02 00:41:18;;;;;;;5.12;2.37;;;;;;;;;;4290643;33;20091;-70
2022/07/02 00:43:45;;;;;;;6.25;2.80;;;;;;;;;;4303840;33;20175;-74
2022/07/02 00:46:11;;;;;;;5.80;2.70;;;;;;;;;;4289537;33;20527;-74
2022/07/02 00:48:37;;;;;;;4.20;2.78;;;;;;;;;;4303745;33;20126;-70
2022/07/02 00:51:03;;;;;;;4.45;2.72;;;;;;;;;;4302216;33;20206;-70
2022/07/02 00:53:29;;;;;;;4.07;2.25;;;;;;;;;;4303511;33;20135;-70
2022/07/02 00:55:58;;;;;;;3.67;2.53;;;;;;;;;;4303575;33;20127;-71
2022/07/02 00:58:25;;;;;;;5.57;2.33;;;;;;;;;;4290204;33;20126;-70
2022/07/02 01:00:51;;;;;;;3.40;2.50;;;;;;;;;;4290538;33;20206;-71
2022/07/02 01:03:18;;;;;;;7.40;2.60;;;;;;;;;;4302977;33;20250;-71
2022/07/02 01:05:45;;;;;;;6.10;2.62;;;;;;;;;;4290326;33;20126;-72
2022/07/02 01:10:56;;;;;;;4.37;2.40;;;;;;;;;;4292167;33;20516;-73
2022/07/02 01:13:23;;;;;;;4.35;2.78;;;;;;;;;;4303502;33;20131;-74
2022/07/02 01:15:49;;;;;;;5.00;2.67;;;;;;;;;;4289989;33;20600;-74
2022/07/02 01:18:17;;;;;;;4.25;2.50;;;;;;;;;;4303280;33;20119;-74
2022/07/02 01:20:44;;;;;;;4.10;2.28;;;;;;;;;;4303231;33;20126;-74
2022/07/02 01:23:10;;;;;;;3.55;2.17;;;;;;;;;;4303232;33;20534;-74
2022/07/02 01:25:36;;;;;;;7.57;2.53;;;;;;;;;;4303150;33;20122;-74
2022/07/02 01:28:02;;;;;;;4.45;2.78;;;;;;;;;;4290164;33;20126;-74
2022/07/02 01:30:29;;;;;;;3.87;2.40;;;;;;;;;;4278846;33;20259;-74
2022/07/02 01:32:57;;;;;;;5.70;2.20;;;;;;;;;;4302657;33;20095;-75
2022/07/02 01:35:23;;;;;;;7.68;2.25;;;;;;;;;;4301840;33;20098;-75
2022/07/02 01:37:49;;;;;;;3.78;2.42;;;;;;;;;;4289969;33;20141;-74
2022/07/02 01:40:15;;;;;;;4.93;3.47;;;;;;;;;;4289853;33;20155;-74
2022/07/02 01:42:41;;;;;;;7.43;3.95;;;;;;;;;;4277977;33;20135;-75
2022/07/02 01:45:08;;;;;;;4.30;2.50;;;;;;;;;;4289751;33;20597;-75
2022/07/02 01:47:34;;;;;;;3.80;2.33;;;;;;;;;;4303129;33;20527;-75
2022/07/02 01:50:00;;;;;;;4.60;2.20;;;;;;;;;;4289627;33;20523;-75
2022/07/02 01:52:26;;;;;;;6.78;2.58;;;;;;;;;;4289800;33;20115;-75
2022/07/02 01:54:53;;;;;;;3.33;2.40;;;;;;;;;;4301695;33;20123;-74
2022/07/02 01:57:18;;;;;;;6.70;2.55;;;;;;;;;;4304228;33;20510;-75
2022/07/02 01:59:44;;;;;;;3.45;2.40;;;;;;;;;;4305348;33;20099;-74
2022/07/02 02:02:11;;;;;;;5.72;2.70;;;;;;;;;;4292095;33;20118;-74
2022/07/02 02:04:37;;;;;;;2.53;2.10;;;;;;;;;;4304053;33;20441;-74
2022/07/02 02:07:04;;;;;;;3.08;2.30;;;;;;;;;;4280382;33;20115;-74
2022/07/02 02:09:30;;;;;;;2.92;2.20;;;;;;;;;;4299382;33;20503;-74
2022/07/02 02:11:56;;;;;;;6.07;2.97;;;;;;;;;;4279927;33;20103;-74
2022/07/02 02:14:22;;;;;;;3.85;2.45;;;;;;;;;;4291466;33;20130;-75
2022/07/02 02:16:48;;;;;;;7.60;3.03;;;;;;;;;;4305125;33;20103;-75
2022/07/02 02:19:14;;;;;;;3.37;2.60;;;;;;;;;;4305098;33;20115;-75
2022/07/02 02:21:40;;;;;;;6.03;2.87;;;;;;;;;;4291842;33;20122;-75
2022/07/02 02:24:06;;;;;;;3.45;2.30;;;;;;;;;;4267760;33;20111;-75
2022/07/02 02:26:33;;;;;;;3.72;2.58;;;;;;;;;;4291670;33;20217;-75
2022/07/02 02:28:59;;;;;;;3.87;2.53;;;;;;;;;;4305098;33;20551;-75
2022/07/02 02:31:25;;;;;;;5.72;2.28;;;;;;;;;;4305347;33;20118;-75
2022/07/02 02:33:51;;;;;;;3.17;2.78;;;;;;;;;;4303404;33;20115;-74
2022/07/02 02:36:17;;;;;;;5.12;2.60;;;;;;;;;;4291660;33;20118;-72
2022/07/02 02:38:46;;;;;;;11.63;4.10;;;;;;;;;;4279263;33;20446;-72
2022/07/02 02:41:12;;;;;;;9.00;3.22;;;;;;;;;;4292183;33;20091;-72
2022/07/02 02:43:38;;;;;;;7.95;4.00;;;;;;;;;;4304764;33;20671;-72
2022/07/02 02:46:05;;;;;;;12.77;4.18;;;;;;;;;;4305147;33;20116;-72
2022/07/02 02:48:33;;;;;;;7.15;4.53;;;;;;;;;;4291112;33;20119;-73
2022/07/02 02:50:59;;;;;;;9.75;5.10;;;;;;;;;;4291130;33;20098;-73
2022/07/02 02:53:25;;;;;;;9.38;5.87;;;;;;;;;;4304778;33;20127;-73
2022/07/02 02:55:51;;;;;;;10.50;6.65;;;;;;;;;;4291338;33;20127;-73
2022/07/02 02:58:18;;;;;;;7.68;4.82;;;;;;;;;;4291468;33;20443;-73
2022/07/02 03:00:44;;;;;;;5.18;3.78;;;;;;;;;;4291313;33;20106;-73
2022/07/02 03:03:10;;;;;;;9.48;4.28;;;;;;;;;;4291242;33;20215;-73
2022/07/02 03:05:36;;;;;;;7.90;4.40;;;;;;;;;;4304901;33;20231;-73
2022/07/02 03:08:02;;;;;;;4.90;3.87;;;;;;;;;;4290756;33;20116;-73
2022/07/02 03:10:28;;;;;;;12.50;7.43;;;;;;;;;;4304610;33;20116;-73
2022/07/02 03:12:54;;;;;;;25.98;13.23;;;;;;;;;;4304965;33;20111;-74
2022/07/02 03:15:20;;;;;;;28.75;13.52;;;;;;;;;;4305465;33;20098;-73
2022/07/02 03:17:46;;;;;;;28.58;14.68;;;;;;;;;;4305141;33;20104;-72
2022/07/02 03:20:12;;;;;;;26.80;12.15;;;;;;;;;;4305310;33;20118;-73
2022/07/02 03:22:38;;;;;;;10.35;5.90;;;;;;;;;;4305226;33;20103;-73
2022/07/02 03:25:04;;;;;;;8.27;4.50;;;;;;;;;;4305087;33;20115;-74
2022/07/02 03:27:31;;;;;;;4.22;3.83;;;;;;;;;;4293157;33;20416;-73
2022/07/02 03:29:56;;;;;;;6.28;3.55;;;;;;;;;;4307289;33;20106;-72
2022/07/02 03:32:28;;;;;;;8.20;4.22;;;;;;;;;;4307174;33;20201;-75
2022/07/02 03:34:55;;;;;;;7.60;3.50;;;;;;;;;;4284596;33;20421;-74
2022/07/02 03:37:25;;;;;;;6.80;4.70;;;;;;;;;;4307378;33;20208;-74
2022/07/02 03:39:51;;;;;;;5.22;3.10;;;;;;;;;;4291928;33;20106;-74
2022/07/02 03:42:17;;;;;;;3.78;3.22;;;;;;;;;;4291137;33;20463;-74
2022/07/02 03:44:43;;;;;;;3.55;3.25;;;;;;;;;;4304480;33;20514;-73
2022/07/02 03:47:09;;;;;;;3.42;3.03;;;;;;;;;;4304276;33;20107;-74
2022/07/02 03:49:35;;;;;;;6.30;3.42;;;;;;;;;;4304186;33;20131;-72
2022/07/02 03:52:01;;;;;;;9.32;3.40;;;;;;;;;;4304246;33;20107;-73
2022/07/02 03:54:27;;;;;;;5.20;3.87;;;;;;;;;;4278646;33;20530;-73
2022/07/02 03:56:53;;;;;;;7.07;4.37;;;;;;;;;;4304033;33;20202;-72
2022/07/02 03:59:19;;;;;;;8.90;5.75;;;;;;;;;;4304301;33;20118;-71
2022/07/02 04:01:45;;;;;;;7.07;4.65;;;;;;;;;;4291014;33;20217;-71
2022/07/02 04:04:12;;;;;;;8.40;5.15;;;;;;;;;;4304121;33;20096;-71
2022/07/02 04:06:38;;;;;;;8.27;4.55;;;;;;;;;;4304121;33;20156;-71
2022/07/02 04:09:04;;;;;;;13.52;6.72;;;;;;;;;;4304055;33;20107;-71
2022/07/02 04:11:30;;;;;;;7.12;4.62;;;;;;;;;;4278553;33;20119;-71
2022/07/02 04:13:56;;;;;;;10.07;5.85;;;;;;;;;;4303728;33;20182;-68
2022/07/02 04:16:22;;;;;;;8.48;5.37;;;;;;;;;;4297540;33;20107;-70
2022/07/02 04:18:48;;;;;;;8.40;5.72;;;;;;;;;;4289769;33;20100;-69
2022/07/02 04:21:14;;;;;;;12.13;6.78;;;;;;;;;;4290506;33;20493;-68
2022/07/02 04:23:39;;;;;;;9.23;6.03;;;;;;;;;;4278009;33;20112;-69
2022/07/02 04:26:06;;;;;;;8.90;5.68;;;;;;;;;;4280288;33;20469;-67
2022/07/02 04:28:32;;;;;;;7.97;4.37;;;;;;;;;;4303872;33;20130;-69
2022/07/02 04:30:58;;;;;;;7.72;4.22;;;;;;;;;;4278804;33;20127;-70
2022/07/02 04:33:24;;;;;;;6.60;4.12;;;;;;;;;;4290127;33;20130;-72
2022/07/02 04:35:50;;;;;;;4.75;4.07;;;;;;;;;;4300183;33;20594;-71
2022/07/02 04:38:17;;;;;;;10.85;5.87;;;;;;;;;;4290176;33;20111;-71
2022/07/02 04:40:43;;;;;;;13.05;6.20;;;;;;;;;;4278463;33;20118;-73
2022/07/02 04:43:09;;;;;;;7.95;4.82;;;;;;;;;;4290525;33;20110;-73
2022/07/02 04:45:35;;;;;;;3.80;3.50;;;;;;;;;;4303918;33;20112;-73
2022/07/02 04:48:01;;;;;;;7.03;4.87;;;;;;;;;;4290585;33;20122;-75
2022/07/02 04:50:27;;;;;;;5.95;3.78;;;;;;;;;;4303875;33;20119;-74
2022/07/02 04:52:53;;;;;;;10.32;5.25;;;;;;;;;;4303960;33;20125;-73
2022/07/02 04:55:19;;;;;;;6.75;4.50;;;;;;;;;;4290304;33;20202;-72
2022/07/02 04:57:45;;;;;;;6.72;4.60;;;;;;;;;;4290515;33;20119;-71
2022/07/02 05:00:12;;;;;;;5.53;4.32;;;;;;;;;;4278427;33;20122;-75
2022/07/02 05:02:38;;;;;;;6.95;3.90;;;;;;;;;;4303961;33;20115;-74
2022/07/02 05:05:04;;;;;;;11.30;4.82;;;;;;;;;;4303480;33;20191;-72
2022/07/02 05:07:31;;;;;;;4.93;4.12;;;;;;;;;;4278235;33;20454;-75
2022/07/02 05:10:00;;;;;;;4.05;3.62;;;;;;;;;;4289768;33;20218;-69
2022/07/02 05:12:27;;;;;;;6.70;4.55;;;;;;;;;;4289709;33;20121;-71
2022/07/02 05:14:53;;;;;;;5.68;4.15;;;;;;;;;;4303534;33;20126;-69
2022/07/02 05:17:19;;;;;;;9.30;5.95;;;;;;;;;;4289686;33;20515;-74
2022/07/02 05:19:45;;;;;;;8.48;5.37;;;;;;;;;;4289654;33;20119;-72
2022/07/02 05:22:11;;;;;;;10.45;6.43;;;;;;;;;;4303302;33;20115;-73
2022/07/02 05:24:37;;;;;;;6.12;5.07;;;;;;;;;;4289658;33;20123;-73
2022/07/02 05:27:03;;;;;;;10.20;5.12;;;;;;;;;;4303316;33;20577;-73
2022/07/02 05:29:29;;;;;;;11.20;7.40;;;;;;;;;;4278042;33;20134;-73
2022/07/02 05:31:55;;;;;;;7.22;5.87;;;;;;;;;;4304041;33;20127;-73
2022/07/02 05:34:21;;;;;;;13.52;5.30;;;;;;;;;;4305560;33;20834;-73
2022/07/02 05:36:47;;;;;;;6.57;4.82;;;;;;;;;;4292174;33;20119;-73
2022/07/02 05:39:13;;;;;;;4.95;4.43;;;;;;;;;;4305554;33;20087;-72
2022/07/02 05:41:40;;;;;;;5.20;3.87;;;;;;;;;;4305424;33;20119;-72
2022/07/02 05:44:06;;;;;;;11.60;5.47;;;;;;;;;;4305167;33;20100;-72
2022/07/02 05:46:32;;;;;;;5.45;4.10;;;;;;;;;;4291897;33;20107;-73
2022/07/02 05:48:57;;;;;;;4.35;3.95;;;;;;;;;;4305331;33;20098;-73
2022/07/02 05:51:24;;;;;;;6.53;3.83;;;;;;;;;;4292147;33;20222;-72
2022/07/02 05:53:50;;;;;;;4.00;3.58;;;;;;;;;;4279975;33;20142;-73
2022/07/02 05:56:15;;;;;;;13.55;3.83;;;;;;;;;;4291868;33;20198;-72
2022/07/02 05:58:42;;;;;;;5.55;3.60;;;;;;;;;;4279913;33;20127;-72
2022/07/02 06:01:08;;;;;;;6.53;3.78;;;;;;;;;;4305175;33;20123;-72
2022/07/02 06:03:34;;;;;;;15.65;4.85;;;;;;;;;;4305289;33;20108;-72
2022/07/02 06:08:44;;;;;;;7.30;3.47;;;;;;;;;;4305072;33;20225;-72
2022/07/02 06:11:11;;;;;;;4.93;4.03;;;;;;;;;;4305451;33;20123;-72
2022/07/02 06:13:37;;;;;;;3.92;3.55;;;;;;;;;;4291827;33;20123;-73
2022/07/02 06:16:03;;;;;;;6.50;3.95;;;;;;;;;;4279947;33;20453;-72
2022/07/02 06:18:30;;;;;;;5.95;3.80;;;;;;;;;;4285495;33;20095;-72
2022/07/02 06:20:56;;;;;;;6.85;3.75;;;;;;;;;;4291881;33;20543;-72
2022/07/02 06:23:22;;;;;;;10.50;4.00;;;;;;;;;;4304886;33;20153;-72
2022/07/02 06:25:49;;;;;;;5.82;4.28;;;;;;;;;;4305018;33;20125;-73
2022/07/02 06:28:15;;;;;;;5.68;3.83;;;;;;;;;;4304957;33;20197;-72
2022/07/02 06:30:41;;;;;;;4.50;3.42;;;;;;;;;;4291233;33;20211;-72
2022/07/02 06:33:07;;;;;;;4.62;3.35;;;;;;;;;;4304848;33;20171;-73
2022/07/02 06:35:33;;;;;;;4.43;3.85;;;;;;;;;;4304755;33;20630;-72
2022/07/02 06:37:59;;;;;;;3.65;3.12;;;;;;;;;;4304997;33;20122;-72
2022/07/02 06:40:25;;;;;;;4.35;3.72;;;;;;;;;;4304802;33;20154;-72
2022/07/02 06:42:51;;;;;;;4.12;3.70;;;;;;;;;;4304508;33;20131;-72
2022/07/02 06:45:17;;;;;;;5.97;3.58;;;;;;;;;;4304489;33;20525;-72
2022/07/02 06:47:43;;;;;;;5.90;3.97;;;;;;;;;;4291677;33;20116;-72
2022/07/02 06:50:11;;;;;;;5.55;3.83;;;;;;;;;;4304939;33;20111;-72
2022/07/02 06:52:37;;;;;;;6.28;3.75;;;;;;;;;;4304773;33;20115;-72
2022/07/02 06:55:04;;;;;;;6.80;4.15;;;;;;;;;;4291406;33;20135;-72
2022/07/02 06:57:30;;;;;;;9.98;4.20;;;;;;;;;;4304633;33;20217;-72
2022/07/02 06:59:56;;;;;;;6.18;3.62;;;;;;;;;;4279336;33;20196;-72
2022/07/02 07:02:22;;;;;;;8.88;4.15;;;;;;;;;;4291498;33;20127;-72
2022/07/02 07:04:48;;;;;;;6.70;3.50;;;;;;;;;;4304586;33;20230;-72
2022/07/02 07:07:16;;;;;;;3.50;3.10;;;;;;;;;;4279403;33;20195;-72
2022/07/02 07:09:42;;;;;;;22.62;4.65;;;;;;;;;;4291210;33;20139;-72
2022/07/02 07:12:09;;;;;;;7.87;3.40;;;;;;;;;;4304803;33;20112;-73
2022/07/02 07:14:36;;;;;;;9.75;4.25;;;;;;;;;;4304550;33;20135;-72
2022/07/02 07:17:02;;;;;;;6.72;3.25;;;;;;;;;;4304558;33;20514;-72
2022/07/02 07:19:28;;;;;;;4.45;3.28;;;;;;;;;;4291068;33;20115;-72
2022/07/02 07:21:54;;;;;;;5.97;3.33;;;;;;;;;;4291434;33;20111;-73
2022/07/02 07:24:20;;;;;;;6.62;3.30;;;;;;;;;;4304422;33;20194;-73
2022/07/02 07:26:46;;;;;;;3.15;2.85;;;;;;;;;;4304529;33;20513;-73
2022/07/02 07:29:13;;;;;;;4.70;3.12;;;;;;;;;;4291050;33;20119;-73
2022/07/02 07:31:41;;;;;;;4.78;3.15;;;;;;;;;;4291245;33;20108;-73
2022/07/02 07:34:08;;;;;;;3.55;3.25;;;;;;;;;;4290954;33;20275;-73
2022/07/02 07:36:34;;;;;;;5.55;3.50;;;;;;;;;;4304796;33;20192;-73
2022/07/02 07:39:02;;;;;;;3.17;2.87;;;;;;;;;;4304435;33;20124;-73
2022/07/02 07:41:27;;;;;;;4.65;3.28;;;;;;;;;;4304397;33;20536;-72
2022/07/02 07:43:53;;;;;;;2.92;2.10;;;;;;;;;;4290917;33;20105;-72
2022/07/02 07:46:20;;;;;;;3.67;3.03;;;;;;;;;;4290882;33;20113;-72
2022/07/02 07:48:46;;;;;;;3.25;2.80;;;;;;;;;;4290949;33;20115;-73
2022/07/02 07:51:13;;;;;;;3.53;2.33;;;;;;;;;;4304460;33;20199;-72
2022/07/02 07:53:39;;;;;;;2.65;1.77;;;;;;;;;;4290837;33;20463;-73
2022/07/02 07:56:05;;;;;;;5.20;2.75;;;;;;;;;;4304131;33;20119;-72
2022/07/02 07:58:34;;;;;;;5.32;3.40;;;;;;;;;;4304112;33;20104;-73
2022/07/02 08:00:59;;;;;;;11.38;3.58;;;;;;;;;;4304275;33;20178;-72
2022/07/02 08:03:26;;;;;;;3.60;2.70;;;;;;;;;;4290677;33;20114;-80
2022/07/02 08:05:55;;;;;;;6.40;3.15;;;;;;;;;;4278800;33;20107;-79
2022/07/02 08:08:22;;;;;;;4.55;3.10;;;;;;;;;;4279042;33;20099;-78
2022/07/02 08:10:48;;;;;;;3.87;3.03;;;;;;;;;;4279118;33;20227;-78
2022/07/02 08:13:15;;;;;;;6.93;3.08;;;;;;;;;;4290759;33;20162;-78
2022/07/02 08:15:41;;;;;;;5.78;3.20;;;;;;;;;;4291080;33;20099;-80
2022/07/02 08:18:08;;;;;;;3.15;2.45;;;;;;;;;;4290566;33;20126;-79
2022/07/02 08:20:34;;;;;;;4.30;3.10;;;;;;;;;;4290870;33;20099;-76
2022/07/02 08:23:00;;;;;;;3.65;3.12;;;;;;;;;;4291098;33;20099;-75
2022/07/02 08:25:26;;;;;;;7.20;3.22;;;;;;;;;;4290673;33;20130;-75
2022/07/02 08:27:52;;;;;;;3.20;2.60;;;;;;;;;;4290666;33;20119;-77
2022/07/02 08:30:18;;;;;;;3.70;2.85;;;;;;;;;;4304185;33;20183;-75
2022/07/02 08:32:44;;;;;;;5.50;3.15;;;;;;;;;;4304289;33;20111;-75
2022/07/02 08:35:10;;;;;;;6.30;2.70;;;;;;;;;;4278859;33;20518;-75
2022/07/02 08:37:37;;;;;;;6.05;3.15;;;;;;;;;;4278535;33;20142;-75
2022/07/02 08:40:03;;;;;;;3.72;2.65;;;;;;;;;;4266848;33;20126;-76
2022/07/02 08:42:32;;;;;;;4.12;2.53;;;;;;;;;;4290489;33;20534;-75
2022/07/02 08:45:00;;;;;;;3.95;3.15;;;;;;;;;;4303979;33;20134;-75
2022/07/02 08:47:27;;;;;;;3.78;3.08;;;;;;;;;;4278872;33;20136;-76
2022/07/02 08:49:54;;;;;;;4.35;2.20;;;;;;;;;;4290945;33;20103;-76
2022/07/02 08:52:22;;;;;;;4.93;2.95;;;;;;;;;;4266620;33;20568;-76
2022/07/02 08:54:49;;;;;;;4.57;2.97;;;;;;;;;;4278538;33;20138;-76
2022/07/02 08:57:16;;;;;;;6.72;3.00;;;;;;;;;;4290247;33;20127;-76
2022/07/02 08:59:42;;;;;;;2.40;2.20;;;;;;;;;;4290239;33;20666;-76
2022/07/02 09:02:13;;;;;;;2.15;1.95;;;;;;;;;;4303720;33;20095;-76
2022/07/02 09:04:47;;;;;;;8.45;3.92;;;;;;;;;;4303844;33;20099;-77
2022/07/02 09:07:14;;;;;;;3.20;2.33;;;;;;;;;;4289777;33;20111;-77
2022/07/02 09:09:43;;;;;;;5.35;2.78;;;;;;;;;;4290154;33;20451;-76
2022/07/02 09:12:14;;;;;;;9.13;4.32;;;;;;;;;;4290862;33;20103;-76
2022/07/02 09:14:40;;;;;;;1.90;1.70;;;;;;;;;;4290392;33;20111;-77
2022/07/02 09:17:07;;;;;;;4.32;3.33;;;;;;;;;;4278399;33;20122;-75
2022/07/02 09:19:35;;;;;;;1.50;1.40;;;;;;;;;;4290069;33;20111;-76
2022/07/02 09:22:01;;;;;;;1.95;1.67;;;;;;;;;;4278255;33;20525;-75
2022/07/02 09:24:34;;;;;;;4.72;2.90;;;;;;;;;;4303545;33;20103;-76
2022/07/02 09:27:04;;;;;;;2.80;2.25;;;;;;;;;;4290389;33;20542;-75
2022/07/02 09:29:52;;;;;;;4.45;3.20;;;;;;;;;;4290095;33;20111;-75
2022/07/02 09:32:19;;;;;;;7.28;3.37;;;;;;;;;;4290091;33;20106;-75
2022/07/02 09:34:47;;;;;;;3.83;2.50;;;;;;;;;;4303464;33;20127;-76
2022/07/02 09:37:14;;;;;;;13.77;4.22;;;;;;;;;;4277816;33;20114;-75
2022/07/02 09:39:43;;;;;;;2.53;1.85;;;;;;;;;;4278148;33;20503;-76
2022/07/02 09:42:22;;;;;;;4.70;3.50;;;;;;;;;;4290243;33;20107;-76
2022/07/02 09:44:48;;;;;;;5.93;3.87;;;;;;;;;;4289948;33;20613;-77
2022/07/02 09:47:15;;;;;;;3.30;2.92;;;;;;;;;;4277989;33;20095;-76
2022/07/02 09:49:48;;;;;;;1.70;1.60;;;;;;;;;;4289826;33;20115;-77
2022/07/02 09:52:15;;;;;;;2.15;1.77;;;;;;;;;;4290688;33;20496;-76
2022/07/02 09:54:42;;;;;;;1.42;1.33;;;;;;;;;;4278260;33;20118;-77
2022/07/02 09:57:10;;;;;;;8.15;3.33;;;;;;;;;;4289965;33;20123;-77
2022/07/02 09:59:36;;;;;;;5.10;2.70;;;;;;;;;;4303266;33;20597;-78
2022/07/02 10:02:03;;;;;;;3.45;2.45;;;;;;;;;;4266068;33;20209;-77
2022/07/02 10:04:30;;;;;;;3.55;2.10;;;;;;;;;;4289583;33;20115;-75
2022/07/02 10:06:58;;;;;;;3.33;3.03;;;;;;;;;;4277674;33;20231;-75
2022/07/02 10:09:25;;;;;;;4.32;2.80;;;;;;;;;;4289555;33;20123;-76
2022/07/02 10:11:51;;;;;;;3.70;2.45;;;;;;;;;;4289642;33;20076;-76
2022/07/02 10:14:20;;;;;;;8.95;2.78;;;;;;;;;;4277527;33;20103;-76
2022/07/02 10:16:47;;;;;;;4.45;2.80;;;;;;;;;;4289743;33;20209;-76
2022/07/02 10:19:14;;;;;;;3.12;2.80;;;;;;;;;;4303915;33;20104;-76
2022/07/02 10:21:42;;;;;;;3.33;2.35;;;;;;;;;;4279947;33;20114;-76
2022/07/02 10:24:08;;;;;;;3.05;2.55;;;;;;;;;;4291724;33;20091;-77
2022/07/02 10:26:35;;;;;;;6.05;2.90;;;;;;;;;;4279746;33;20123;-77
2022/07/02 10:29:04;;;;;;;4.85;2.67;;;;;;;;;;4279708;33;20141;-77
2022/07/02 10:31:36;;;;;;;6.70;2.70;;;;;;;;;;4304889;33;20095;-77
2022/07/02 10:34:02;;;;;;;4.05;2.87;;;;;;;;;;4291608;33;20125;-78
2022/07/02 10:36:28;;;;;;;3.97;2.65;;;;;;;;;;4291643;33;20139;-77
2022/07/02 10:38:59;;;;;;;4.05;3.00;;;;;;;;;;4291539;33;20104;-77
2022/07/02 10:41:29;;;;;;;5.43;2.95;;;;;;;;;;4292064;33;20114;-77
2022/07/02 10:43:56;;;;;;;5.43;2.83;;;;;;;;;;4279455;33;20126;-77
2022/07/02 10:46:27;;;;;;;3.05;2.58;;;;;;;;;;4291363;33;20127;-77
2022/07/02 10:48:55;;;;;;;3.87;2.87;;;;;;;;;;4291502;33;20435;-77
2022/07/02 10:51:30;;;;;;;3.12;2.62;;;;;;;;;;4279450;33;20087;-77
2022/07/02 10:54:06;;;;;;;4.53;2.45;;;;;;;;;;4279506;33;20438;-77
2022/07/02 10:56:49;;;;;;;3.28;2.85;;;;;;;;;;4291527;33;20450;-76
2022/07/02 10:59:22;;;;;;;4.75;2.60;;;;;;;;;;4291549;33;20456;-77
2022/07/02 11:01:48;;;;;;;2.90;2.50;;;;;;;;;;4292054;33;20088;-77
2022/07/02 11:04:20;;;;;;;4.87;2.83;;;;;;;;;;4302601;33;20617;-77
2022/07/02 11:06:47;;;;;;;4.72;2.83;;;;;;;;;;4291438;33;20435;-76
2022/07/02 11:09:13;;;;;;;4.05;2.72;;;;;;;;;;4304684;33;20196;-78
2022/07/02 11:11:39;;;;;;;6.53;3.12;;;;;;;;;;4305062;33;20166;-76
2022/07/02 11:14:16;;;;;;;5.82;3.15;;;;;;;;;;4304733;33;20514;-77
2022/07/02 11:16:46;;;;;;;7.30;3.40;;;;;;;;;;4304933;33;20130;-77
2022/07/02 11:19:12;;;;;;;2.92;2.20;;;;;;;;;;4291566;33;20107;-76
2022/07/02 11:21:39;;;;;;;3.28;2.67;;;;;;;;;;4305187;33;20211;-76
2022/07/02 11:24:06;;;;;;;3.92;2.83;;;;;;;;;;4291553;33;20110;-76
2022/07/02 11:26:32;;;;;;;6.60;3.60;;;;;;;;;;4291648;33;20221;-77
2022/07/02 11:29:05;;;;;;;5.22;3.58;;;;;;;;;;4304755;33;20111;-77
2022/07/02 11:31:34;;;;;;;4.10;2.90;;;;;;;;;;4279801;33;20114;-76
2022/07/02 11:34:00;;;;;;;5.18;2.85;;;;;;;;;;4291098;33;20117;-77
2022/07/02 11:36:26;;;;;;;3.70;2.62;;;;;;;;;;4304677;33;20095;-78
2022/07/02 11:38:53;;;;;;;7.03;2.95;;;;;;;;;;4291178;33;20202;-76
2022/07/02 11:41:23;;;;;;;3.80;2.70;;;;;;;;;;4291176;33;20121;-76
2022/07/02 11:43:51;;;;;;;6.12;2.60;;;;;;;;;;4291209;33;20182;-76
2022/07/02 11:46:21;;;;;;;6.18;2.92;;;;;;;;;;4291343;33;20122;-76
2022/07/02 11:48:48;;;;;;;6.82;2.87;;;;;;;;;;4291471;33;20434;-78
2022/07/02 11:51:15;;;;;;;5.68;2.05;;;;;;;;;;4279120;33;20135;-76
2022/07/02 11:53:41;;;;;;;3.08;2.72;;;;;;;;;;4279192;33;20110;-78
2022/07/02 11:56:09;;;;;;;7.37;3.25;;;;;;;;;;4291255;33;20126;-76
2022/07/02 11:58:43;;;;;;;1.55;1.45;;;;;;;;;;4291337;33;20198;-76
2022/07/02 12:01:22;;;;;;;4.05;2.72;;;;;;;;;;4304630;33;20108;-77
2022/07/02 12:03:49;;;;;;;6.93;3.20;;;;;;;;;;4291123;33;20085;-77
2022/07/02 12:06:15;;;;;;;8.65;3.53;;;;;;;;;;4304587;33;20112;-76
2022/07/02 12:08:42;;;;;;;3.42;2.50;;;;;;;;;;4304397;33;20128;-77
2022/07/02 12:11:16;;;;;;;2.80;2.47;;;;;;;;;;4279117;33;20221;-76
2022/07/02 12:13:42;;;;;;;6.93;3.03;;;;;;;;;;4304618;33;20198;-78
2022/07/02 12:16:12;;;;;;;3.60;2.75;;;;;;;;;;4304433;33;20107;-77
2022/07/02 12:18:38;;;;;;;5.72;3.35;;;;;;;;;;4304282;33;20135;-78
2022/07/02 12:21:11;;;;;;;12.10;3.28;;;;;;;;;;4291081;33;20131;-77
2022/07/02 12:23:48;;;;;;;7.87;2.67;;;;;;;;;;4291081;33;20103;-76
2022/07/02 12:26:23;;;;;;;2.92;2.60;;;;;;;;;;4291108;33;20506;-76
2022/07/02 12:31:50;;;;;;;10.05;2.78;;;;;;;;;;4292814;33;20114;-76
2022/07/02 12:34:17;;;;;;;2.35;2.15;;;;;;;;;;4290671;33;20111;-76
2022/07/02 12:36:53;;;;;;;3.45;2.58;;;;;;;;;;4267034;33;20111;-76
2022/07/02 12:39:24;;;;;;;5.10;2.75;;;;;;;;;;4290831;33;20240;-75
2022/07/02 12:41:50;;;;;;;15.20;2.53;;;;;;;;;;4277892;33;20186;-76
2022/07/02 12:44:22;;;;;;;5.72;2.67;;;;;;;;;;4304043;33;20100;-77
2022/07/02 12:46:50;;;;;;;5.90;2.85;;;;;;;;;;4267805;33;20130;-76
2022/07/02 12:49:21;;;;;;;2.75;2.50;;;;;;;;;;4290741;33;20526;-76
2022/07/02 12:51:55;;;;;;;5.43;2.58;;;;;;;;;;4290827;33;20093;-76
2022/07/02 12:54:32;;;;;;;6.12;2.60;;;;;;;;;;4290796;33;20095;-76
2022/07/02 12:57:13;;;;;;;4.57;2.47;;;;;;;;;;4290689;33;20133;-77
2022/07/02 12:59:39;;;;;;;4.12;2.60;;;;;;;;;;4278766;33;20107;-77
2022/07/02 13:02:05;;;;;;;7.28;3.00;;;;;;;;;;4278618;33;20515;-74
2022/07/02 13:04:31;;;;;;;3.55;2.72;;;;;;;;;;4290253;33;20118;-77
2022/07/02 13:06:57;;;;;;;5.30;3.33;;;;;;;;;;4290634;33;20294;-75
2022/07/02 13:09:23;;;;;;;3.47;2.83;;;;;;;;;;4303716;33;20608;-75
2022/07/02 13:11:49;;;;;;;2.72;2.40;;;;;;;;;;4290492;33;20213;-76
2022/07/02 13:14:15;;;;;;;3.22;2.30;;;;;;;;;;4303810;33;20099;-76
2022/07/02 13:16:41;;;;;;;5.55;3.20;;;;;;;;;;4278560;33;20603;-76
2022/07/02 13:19:08;;;;;;;3.15;2.53;;;;;;;;;;4290143;33;20088;-78
2022/07/02 13:21:33;;;;;;;4.60;2.83;;;;;;;;;;4290368;33;20126;-76
2022/07/02 13:23:59;;;;;;;2.83;2.55;;;;;;;;;;4303941;33;20515;-76
2022/07/02 13:26:25;;;;;;;2.70;2.50;;;;;;;;;;4278410;33;20222;-76
2022/07/02 13:28:51;;;;;;;4.45;2.67;;;;;;;;;;4290348;33;20092;-76
2022/07/02 13:31:17;;;;;;;3.17;2.55;;;;;;;;;;4304096;33;20466;-75
2022/07/02 13:33:43;;;;;;;5.47;2.65;;;;;;;;;;4303600;33;20126;-75
2022/07/02 13:36:09;;;;;;;5.18;2.85;;;;;;;;;;4303460;33;20115;-75
2022/07/02 13:38:35;;;;;;;5.78;2.85;;;;;;;;;;4303466;33;20131;-76
2022/07/02 13:41:01;;;;;;;3.80;3.03;;;;;;;;;;4278098;33;20526;-74
2022/07/02 13:43:27;;;;;;;6.25;2.78;;;;;;;;;;4303152;33;20440;-77
2022/07/02 13:45:53;;;;;;;4.78;2.72;;;;;;;;;;4303589;33;20122;-75
2022/07/02 13:48:19;;;;;;;8.50;3.20;;;;;;;;;;4303494;33;20211;-76
2022/07/02 13:50:45;;;;;;;8.63;2.65;;;;;;;;;;4290178;33;20126;-76
2022/07/02 13:53:12;;;;;;;9.85;2.45;;;;;;;;;;4291244;33;20103;-75
2022/07/02 13:55:38;;;;;;;3.55;2.70;;;;;;;;;;4292369;33;20429;-75
2022/07/02 13:58:04;;;;;;;4.47;2.92;;;;;;;;;;4305788;33;20217;-75
2022/07/02 14:00:30;;;;;;;4.50;2.85;;;;;;;;;;4292373;33;20495;-76
2022/07/02 14:02:56;;;;;;;3.40;2.55;;;;;;;;;;4305814;33;20115;-76
2022/07/02 14:05:22;;;;;;;3.00;2.50;;;;;;;;;;4292396;33;20103;-76
2022/07/02 14:07:48;;;;;;;7.43;2.95;;;;;;;;;;4292524;33;20217;-76
2022/07/02 14:10:14;;;;;;;3.42;2.90;;;;;;;;;;4292476;33;20100;-77
2022/07/02 14:12:40;;;;;;;5.57;2.83;;;;;;;;;;4292004;33;20127;-76
2022/07/02 14:15:07;;;;;;;4.00;2.75;;;;;;;;;;4305661;33;20095;-76
2022/07/02 14:17:33;;;;;;;3.42;2.90;;;;;;;;;;4305486;33;20535;-75
2022/07/02 14:19:59;;;;;;;5.07;3.08;;;;;;;;;;4306606;33;20115;-77
2022/07/02 14:22:29;;;;;;;4.07;2.70;;;;;;;;;;4292046;33;20130;-76
2022/07/02 14:24:55;;;;;;;2.42;2.22;;;;;;;;;;4292252;33;20187;-76
2022/07/02 14:27:21;;;;;;;5.18;2.97;;;;;;;;;;4292209;33;20238;-74
2022/07/02 14:29:48;;;;;;;9.40;2.97;;;;;;;;;;4305457;33;20568;-76
2022/07/02 14:32:14;;;;;;;5.68;3.53;;;;;;;;;;4280066;33;20117;-75
2022/07/02 14:34:40;;;;;;;6.82;3.30;;;;;;;;;;4305316;33;20118;-75
2022/07/02 14:37:06;;;;;;;6.97;3.37;;;;;;;;;;4291894;33;20123;-75
2022/07/02 14:39:32;;;;;;;5.00;2.37;;;;;;;;;;4305153;33;20110;-76
2022/07/02 14:41:59;;;;;;;4.68;2.90;;;;;;;;;;4291737;33;20123;-75
2022/07/02 14:44:25;;;;;;;3.95;2.70;;;;;;;;;;4291961;33;20187;-75
2022/07/02 14:46:51;;;;;;;2.53;2.33;;;;;;;;;;4279872;33;20546;-75
2022/07/02 14:49:17;;;;;;;4.22;2.72;;;;;;;;;;4279685;33;20115;-77
2022/07/02 14:51:44;;;;;;;3.42;2.83;;;;;;;;;;4291634;33;20150;-76
2022/07/02 14:54:10;;;;;;;3.33;2.72;;;;;;;;;;4291573;33;20194;-77
2022/07/02 14:56:36;;;;;;;5.37;2.90;;;;;;;;;;4305180;33;20218;-76
2022/07/02 14:59:03;;;;;;;4.65;2.83;;;;;;;;;;4280075;33;20098;-76
2022/07/02 15:01:30;;;;;;;4.62;2.70;;;;;;;;;;4305183;33;20106;-76
2022/07/02 15:03:56;;;;;;;5.50;3.08;;;;;;;;;;4304426;33;20108;-76
2022/07/02 15:06:22;;;;;;;3.80;2.95;;;;;;;;;;4279289;33;20573;-75
2022/07/02 15:08:48;;;;;;;22.42;5.10;;;;;;;;;;4304998;33;20095;-75
2022/07/02 15:11:14;;;;;;;4.57;3.28;;;;;;;;;;4305084;33;20447;-75
2022/07/02 15:16:24;;;;;;;11.70;3.33;;;;;;;;;;4305038;33;20106;-74
2022/07/02 15:18:50;;;;;;;7.80;3.30;;;;;;;;;;4291272;33;20194;-74